createdAt,value
2019-03-18T00:00:15.078Z,72.09
2019-03-18T00:02:43.637Z,74.03
2019-03-18T00:05:12.381Z,74.48
2019-03-18T00:07:40.866Z,74.24
2019-03-18T00:10:09.588Z,73.52
2019-03-18T00:12:38.088Z,73.35
2019-03-18T00:15:08.699Z,73.77
2019-03-18T00:17:37.217Z,74.60
2019-03-18T00:20:08.060Z,75.79
2019-03-18T00:22:36.567Z,73.69
2019-03-18T00:25:07.176Z,73.10
2019-03-18T00:27:35.655Z,71.08
2019-03-18T00:30:06.209Z,70.74
2019-03-18T00:32:34.680Z,67.57
2019-03-18T00:35:03.417Z,67.53
2019-03-18T00:37:31.962Z,66.16
2019-03-18T00:40:00.471Z,65.21
2019-03-18T00:42:28.939Z,64.89
2019-03-18T00:44:57.434Z,65.80
2019-03-18T00:47:25.918Z,66.65
2019-03-18T00:49:54.428Z,66.46
2019-03-18T00:52:22.906Z,66.55
2019-03-18T00:54:51.387Z,67.28
2019-03-18T00:57:19.938Z,67.08
2019-03-18T00:59:48.404Z,66.19
2019-03-18T01:02:16.901Z,66.60
2019-03-18T01:04:45.402Z,66.74
2019-03-18T01:07:13.858Z,66.52
2019-03-18T01:09:42.324Z,67.42
2019-03-18T01:12:10.796Z,69.00
2019-03-18T01:14:39.272Z,69.91
2019-03-18T01:17:07.794Z,70.58
2019-03-18T01:19:36.262Z,72.67
2019-03-18T01:22:04.721Z,72.48
2019-03-18T01:24:33.217Z,72.29
2019-03-18T01:27:01.696Z,72.72
2019-03-18T01:29:30.151Z,72.16
2019-03-18T01:31:58.631Z,74.24
2019-03-18T01:34:27.113Z,74.13
2019-03-18T01:36:55.617Z,73.61
2019-03-18T01:39:24.154Z,72.40
2019-03-18T01:41:52.648Z,72.75
2019-03-18T01:44:21.111Z,74.63
2019-03-18T01:46:49.601Z,76.60
2019-03-18T01:49:18.065Z,75.52
2019-03-18T01:51:46.562Z,74.72
2019-03-18T01:54:15.027Z,72.98
2019-03-18T01:56:43.657Z,71.41
2019-03-18T01:59:12.123Z,72.57
2019-03-18T02:01:40.594Z,72.79
2019-03-18T02:04:09.085Z,72.83
2019-03-18T02:06:37.584Z,72.48
2019-03-18T02:09:07.094Z,72.76
2019-03-18T02:11:35.567Z,71.63
2019-03-18T02:14:04.250Z,70.66
2019-03-18T02:16:32.720Z,71.73
2019-03-18T02:19:01.290Z,70.73
2019-03-18T02:21:29.825Z,69.68
2019-03-18T02:23:59.300Z,69.07
2019-03-18T02:26:27.828Z,68.85
2019-03-18T02:28:56.328Z,68.74
2019-03-18T02:31:24.810Z,68.53
2019-03-18T02:33:53.309Z,69.45
2019-03-18T02:36:21.787Z,69.40
2019-03-18T02:38:50.264Z,69.81
2019-03-18T02:41:18.765Z,70.12
2019-03-18T02:43:47.236Z,70.08
2019-03-18T02:46:15.706Z,70.10
2019-03-18T02:48:44.166Z,71.14
2019-03-18T02:51:12.664Z,71.06
2019-03-18T02:53:41.126Z,70.50
2019-03-18T02:56:09.606Z,72.12
2019-03-18T02:58:38.110Z,73.44
2019-03-18T03:01:06.571Z,71.65
2019-03-18T03:03:36.938Z,71.63
2019-03-18T03:06:05.338Z,70.24
2019-03-18T03:08:33.815Z,69.86
2019-03-18T03:11:02.282Z,70.06
2019-03-18T03:13:30.779Z,69.55
2019-03-18T03:15:59.262Z,68.81
2019-03-18T03:18:27.752Z,67.93
2019-03-18T03:20:56.209Z,67.43
2019-03-18T03:23:24.682Z,67.33
2019-03-18T03:25:53.184Z,66.81
2019-03-18T03:28:21.671Z,66.42
2019-03-18T03:30:50.176Z,66.27
2019-03-18T03:33:18.614Z,66.37
2019-03-18T03:35:47.113Z,66.28
2019-03-18T03:38:15.576Z,66.45
2019-03-18T03:40:44.056Z,66.48
2019-03-18T03:43:12.528Z,66.29
2019-03-18T03:45:41.026Z,66.09
2019-03-18T03:48:09.494Z,67.79
2019-03-18T03:50:37.996Z,66.91
2019-03-18T03:53:06.496Z,66.35
2019-03-18T03:55:35.017Z,65.80
2019-03-18T03:58:03.734Z,64.79
2019-03-18T04:00:32.205Z,65.10
2019-03-18T04:03:00.693Z,65.96
2019-03-18T04:05:29.164Z,66.09
2019-03-18T04:07:57.658Z,65.45
2019-03-18T04:10:26.209Z,64.88
2019-03-18T04:12:54.677Z,64.41
2019-03-18T04:15:23.178Z,64.67
2019-03-18T04:17:51.647Z,65.69
2019-03-18T04:20:20.151Z,65.38
2019-03-18T04:22:48.623Z,65.32
2019-03-18T04:25:17.109Z,64.73
2019-03-18T04:27:45.685Z,65.22
2019-03-18T04:30:15.557Z,65.07
2019-03-18T04:32:43.990Z,65.27
2019-03-18T04:35:12.560Z,66.46
2019-03-18T04:37:41.110Z,67.56
2019-03-18T04:40:10.883Z,68.15
2019-03-18T04:42:39.353Z,67.86
2019-03-18T04:45:09.175Z,68.06
2019-03-18T04:47:37.815Z,69.49
2019-03-18T04:50:08.063Z,71.72
2019-03-18T04:52:36.544Z,72.33
2019-03-18T04:55:07.002Z,73.02
2019-03-18T04:57:35.586Z,72.04
2019-03-18T05:00:08.280Z,71.68
2019-03-18T05:02:36.859Z,71.16
2019-03-18T05:05:05.765Z,72.14
2019-03-18T05:07:34.232Z,72.33
2019-03-18T05:10:02.806Z,71.47
2019-03-18T05:12:31.308Z,70.94
2019-03-18T05:14:59.780Z,70.77
2019-03-18T05:17:28.284Z,71.14
2019-03-18T05:19:56.757Z,71.97
2019-03-18T05:22:25.237Z,72.35
2019-03-18T05:24:53.756Z,72.60
2019-03-18T05:27:22.262Z,73.55
2019-03-18T05:29:50.743Z,74.59
2019-03-18T05:32:19.198Z,74.80
2019-03-18T05:34:47.686Z,75.50
2019-03-18T05:37:16.195Z,74.83
2019-03-18T05:39:44.684Z,73.59
2019-03-18T05:42:13.162Z,72.67
2019-03-18T05:44:41.660Z,72.86
2019-03-18T05:47:10.127Z,74.78
2019-03-18T05:49:38.596Z,73.43
2019-03-18T05:52:07.098Z,72.96
2019-03-18T05:54:35.581Z,72.45
2019-03-18T05:57:04.149Z,72.96
2019-03-18T05:59:32.616Z,72.44
2019-03-18T06:02:01.094Z,72.71
2019-03-18T06:04:29.592Z,73.95
2019-03-18T06:06:58.065Z,74.27
2019-03-18T06:09:26.544Z,72.79
2019-03-18T06:11:55.026Z,73.43
2019-03-18T06:14:23.507Z,72.85
2019-03-18T06:16:52.059Z,71.55
2019-03-18T06:19:20.599Z,71.60
2019-03-18T06:21:49.099Z,71.19
2019-03-18T06:24:17.583Z,70.63
2019-03-18T06:26:46.047Z,70.37
2019-03-18T06:29:14.522Z,70.71
2019-03-18T06:31:42.992Z,70.65
2019-03-18T06:34:11.507Z,70.91
2019-03-18T06:36:39.974Z,70.99
2019-03-18T06:39:08.475Z,70.75
2019-03-18T06:41:36.967Z,70.64
2019-03-18T06:44:05.445Z,70.11
2019-03-18T06:46:33.926Z,69.62
2019-03-18T06:49:02.431Z,70.54
2019-03-18T06:51:30.901Z,71.77
2019-03-18T06:53:59.398Z,70.56
2019-03-18T06:56:27.866Z,70.44
2019-03-18T06:58:56.425Z,69.74
2019-03-18T07:01:24.912Z,70.31
2019-03-18T07:03:53.400Z,69.91
2019-03-18T07:06:21.901Z,70.97
2019-03-18T07:08:50.372Z,69.77
2019-03-18T07:11:18.886Z,70.16
2019-03-18T07:13:47.356Z,69.10
2019-03-18T07:16:16.737Z,69.24
2019-03-18T07:18:45.284Z,70.26
2019-03-18T07:21:14.887Z,71.63
2019-03-18T07:23:43.411Z,70.10
2019-03-18T07:26:11.898Z,69.96
2019-03-18T07:28:40.434Z,70.56
2019-03-18T07:31:08.918Z,69.58
2019-03-18T07:33:37.421Z,69.49
2019-03-18T07:36:05.916Z,70.74
2019-03-18T07:38:34.388Z,70.52
2019-03-18T07:41:02.867Z,70.34
2019-03-18T07:43:31.329Z,71.34
2019-03-18T07:45:59.828Z,70.19
2019-03-18T07:48:31.647Z,70.50
2019-03-18T07:50:59.552Z,70.78
2019-03-18T07:53:28.025Z,73.29
2019-03-18T07:55:56.512Z,72.03
2019-03-18T07:58:24.993Z,71.96
2019-03-18T08:00:53.608Z,71.61
2019-03-18T08:03:22.241Z,73.31
2019-03-18T08:05:50.734Z,73.94
2019-03-18T08:08:19.282Z,73.66
2019-03-18T08:10:47.722Z,73.56
2019-03-18T08:13:16.186Z,73.78
2019-03-18T08:15:44.687Z,73.75
2019-03-18T08:18:13.229Z,73.48
2019-03-18T08:20:41.690Z,72.60
2019-03-18T08:23:10.162Z,72.35
2019-03-18T08:25:38.660Z,72.39
2019-03-18T08:28:07.158Z,71.85
2019-03-18T08:30:35.641Z,71.39
2019-03-18T08:33:04.144Z,69.53
2019-03-18T08:35:32.614Z,69.82
2019-03-18T08:38:01.096Z,69.54
2019-03-18T08:40:29.601Z,68.49
2019-03-18T08:42:58.063Z,70.31
2019-03-18T08:45:26.533Z,68.70
2019-03-18T08:47:55.027Z,68.11
2019-03-18T08:50:23.496Z,66.72
2019-03-18T08:52:52.007Z,64.40
2019-03-18T08:55:20.458Z,63.81
2019-03-18T08:57:50.059Z,62.52
2019-03-18T09:00:18.903Z,59.00
2019-03-18T09:02:47.372Z,60.64
2019-03-18T09:05:15.920Z,60.81
2019-03-18T09:07:44.403Z,58.07
2019-03-18T09:10:14.056Z,57.90
2019-03-18T09:12:42.601Z,58.41
2019-03-18T09:15:12.011Z,57.12
2019-03-18T09:17:40.487Z,58.03
2019-03-18T09:20:14.052Z,56.36
2019-03-18T09:22:42.570Z,56.87
2019-03-18T09:25:11.693Z,53.92
2019-03-18T09:27:40.230Z,55.90
2019-03-18T09:30:19.492Z,54.27
2019-03-18T09:32:48.030Z,54.83
2019-03-18T09:35:16.550Z,49.55
2019-03-18T09:37:45.021Z,52.98
2019-03-18T09:40:17.801Z,54.96
2019-03-18T09:42:46.260Z,52.92
2019-03-18T09:45:15.956Z,52.60
2019-03-18T09:47:44.433Z,52.30
2019-03-18T09:50:13.472Z,52.01
2019-03-18T09:52:41.939Z,51.81
2019-03-18T09:55:10.742Z,51.00
2019-03-18T09:57:39.245Z,49.92
2019-03-18T10:00:12.768Z,48.42
2019-03-18T10:02:41.417Z,48.26
2019-03-18T10:05:09.965Z,46.64
2019-03-18T10:07:38.490Z,47.66
2019-03-18T10:10:10.002Z,47.21
2019-03-18T10:12:38.465Z,45.64
2019-03-18T10:15:10.273Z,44.59
2019-03-18T10:17:38.750Z,45.10
2019-03-18T10:20:08.796Z,45.87
2019-03-18T10:22:37.306Z,46.31
2019-03-18T10:25:07.435Z,46.31
2019-03-18T10:27:37.764Z,44.17
2019-03-18T10:30:11.323Z,43.60
2019-03-18T10:32:39.856Z,45.83
2019-03-18T10:35:09.124Z,45.15
2019-03-18T10:37:37.661Z,48.15
2019-03-18T10:40:10.051Z,45.68
2019-03-18T10:42:38.587Z,43.51
2019-03-18T10:45:12.091Z,43.51
2019-03-18T10:47:40.633Z,45.12
2019-03-18T10:50:17.043Z,45.24
2019-03-18T10:52:45.656Z,43.92
2019-03-18T10:55:14.356Z,44.70
2019-03-18T10:57:42.812Z,44.44
2019-03-18T11:00:16.715Z,44.21
2019-03-18T11:02:45.700Z,45.11
2019-03-18T11:05:15.043Z,45.80
2019-03-18T11:07:43.703Z,45.38
2019-03-18T11:10:14.513Z,41.98
2019-03-18T11:12:43.235Z,45.25
2019-03-18T11:15:14.052Z,42.96
2019-03-18T11:17:42.601Z,45.59
2019-03-18T11:20:13.044Z,44.77
2019-03-18T11:22:41.658Z,43.59
2019-03-18T11:25:12.272Z,42.65
2019-03-18T11:27:40.906Z,44.78
2019-03-18T11:30:12.421Z,45.44
2019-03-18T11:32:40.903Z,43.56
2019-03-18T11:35:09.657Z,43.19
2019-03-18T11:37:38.197Z,43.48
2019-03-18T11:40:09.746Z,43.27
2019-03-18T11:42:38.316Z,44.27
2019-03-18T11:45:12.118Z,41.77
2019-03-18T11:47:40.576Z,41.48
2019-03-18T11:50:14.190Z,41.46
2019-03-18T11:52:42.740Z,41.08
2019-03-18T11:55:14.287Z,40.70
2019-03-18T11:57:42.834Z,38.38
2019-03-18T12:00:14.157Z,38.41
2019-03-18T12:02:42.660Z,40.82
2019-03-18T12:05:14.102Z,41.13
2019-03-18T12:07:42.628Z,39.33
2019-03-18T12:10:18.210Z,38.31
2019-03-18T12:12:46.826Z,38.77
2019-03-18T12:15:16.872Z,38.71
2019-03-18T12:17:45.540Z,36.84
2019-03-18T12:20:24.216Z,37.44
2019-03-18T12:22:45.546Z,37.40
2019-03-18T12:25:14.408Z,36.46
2019-03-18T12:27:43.022Z,37.11
2019-03-18T12:30:21.778Z,35.50
2019-03-18T12:32:50.283Z,36.83
2019-03-18T12:35:18.961Z,35.67
2019-03-18T12:37:47.515Z,34.98
2019-03-18T12:40:17.095Z,36.60
2019-03-18T12:42:46.059Z,35.57
2019-03-18T12:45:18.752Z,38.10
2019-03-18T12:47:47.492Z,36.52
2019-03-18T12:50:39.105Z,34.51
2019-03-18T12:52:55.981Z,37.38
2019-03-18T12:55:24.516Z,37.68
2019-03-18T12:57:52.989Z,37.95
2019-03-18T13:00:27.280Z,37.92
2019-03-18T13:02:55.903Z,38.25
2019-03-18T13:05:24.407Z,38.00
2019-03-18T13:07:52.883Z,37.25
2019-03-18T13:10:22.190Z,37.12
2019-03-18T13:12:50.943Z,37.70
2019-03-18T13:15:20.262Z,38.91
2019-03-18T13:17:48.825Z,39.22
2019-03-18T13:20:21.823Z,38.40
2019-03-18T13:22:53.573Z,37.89
2019-03-18T13:25:20.620Z,38.82
2019-03-18T13:27:49.100Z,37.48
2019-03-18T13:30:21.662Z,37.65
2019-03-18T13:32:50.288Z,38.77
2019-03-18T13:35:18.767Z,37.90
2019-03-18T13:37:47.334Z,37.32
2019-03-18T13:40:16.933Z,38.31
2019-03-18T13:42:45.484Z,36.90
2019-03-18T13:45:15.731Z,35.74
2019-03-18T13:47:44.350Z,35.49
2019-03-18T13:50:15.068Z,35.39
2019-03-18T13:52:43.884Z,34.96
2019-03-18T13:55:12.702Z,34.54
2019-03-18T13:57:41.264Z,34.82
2019-03-18T14:00:18.432Z,35.43
2019-03-18T14:02:46.917Z,34.47
2019-03-18T14:05:15.563Z,35.18
2019-03-18T14:07:44.320Z,35.25
2019-03-18T14:10:20.985Z,36.17
2019-03-18T14:12:49.610Z,35.61
2019-03-18T14:15:25.494Z,34.94
2019-03-18T14:17:54.125Z,34.33
2019-03-18T14:20:24.897Z,34.16
2019-03-18T14:22:53.355Z,34.51
2019-03-18T14:25:21.910Z,34.31
2019-03-18T14:27:50.384Z,35.03
2019-03-18T14:30:20.035Z,36.10
2019-03-18T14:32:50.190Z,34.76
2019-03-18T14:35:21.261Z,33.54
2019-03-18T14:37:49.910Z,34.43
2019-03-18T14:40:23.295Z,35.17
2019-03-18T14:42:51.836Z,35.32
2019-03-18T14:45:21.545Z,34.39
2019-03-18T14:47:50.031Z,35.34
2019-03-18T14:50:19.740Z,37.64
2019-03-18T14:52:48.388Z,38.11
2019-03-18T14:55:19.025Z,37.88
2019-03-18T14:57:47.759Z,36.76
2019-03-18T15:00:18.910Z,37.80
2019-03-18T15:02:47.468Z,37.71
2019-03-18T15:05:17.520Z,36.41
2019-03-18T15:07:48.045Z,36.68
2019-03-18T15:10:20.002Z,35.86
2019-03-18T15:12:48.492Z,36.20
2019-03-18T15:15:18.610Z,36.31
2019-03-18T15:17:47.063Z,35.55
2019-03-18T15:20:20.152Z,35.83
2019-03-18T15:22:48.657Z,35.72
2019-03-18T15:25:19.783Z,36.23
2019-03-18T15:27:48.292Z,35.93
2019-03-18T15:30:18.678Z,36.34
2019-03-18T15:32:47.693Z,37.23
2019-03-18T15:35:17.515Z,36.67
2019-03-18T15:37:46.054Z,36.33
2019-03-18T15:40:17.130Z,36.67
2019-03-18T15:42:45.596Z,36.95
2019-03-18T15:45:18.616Z,37.34
2019-03-18T15:47:47.153Z,38.04
2019-03-18T15:50:20.290Z,37.80
2019-03-18T15:52:50.369Z,38.15
2019-03-18T15:55:18.873Z,37.97
2019-03-18T15:57:47.420Z,37.46
2019-03-18T16:00:21.603Z,37.40
2019-03-18T16:02:50.085Z,39.14
2019-03-18T16:05:18.636Z,38.08
2019-03-18T16:07:47.125Z,38.07
2019-03-18T16:10:19.575Z,37.52
2019-03-18T16:12:48.084Z,38.14
2019-03-18T16:15:17.444Z,37.79
2019-03-18T16:17:46.061Z,38.21
2019-03-18T16:20:19.175Z,38.45
2019-03-18T16:22:47.676Z,38.38
2019-03-18T16:25:16.220Z,38.51
2019-03-18T16:27:44.870Z,38.46
2019-03-18T16:30:15.654Z,38.46
2019-03-18T16:32:44.231Z,38.42
2019-03-18T16:35:15.865Z,37.96
2019-03-18T16:37:44.619Z,38.32
2019-03-18T16:40:14.966Z,40.12
2019-03-18T16:42:43.707Z,40.40
2019-03-18T16:45:14.258Z,38.93
2019-03-18T16:47:43.109Z,39.67
2019-03-18T16:50:16.422Z,40.36
2019-03-18T16:52:44.985Z,41.75
2019-03-18T16:55:13.605Z,42.24
2019-03-18T16:57:42.182Z,42.94
2019-03-18T17:00:16.917Z,42.89
2019-03-18T17:02:45.384Z,41.53
2019-03-18T17:05:14.310Z,41.84
2019-03-18T17:07:42.862Z,42.04
2019-03-18T17:10:13.075Z,41.50
2019-03-18T17:12:41.722Z,41.70
2019-03-18T17:15:18.110Z,42.08
2019-03-18T17:17:46.673Z,42.18
2019-03-18T17:20:16.928Z,42.73
2019-03-18T17:22:49.295Z,43.01
2019-03-18T17:25:24.161Z,42.90
2019-03-18T17:27:55.796Z,42.34
2019-03-18T17:30:26.694Z,42.65
2019-03-18T17:32:54.497Z,43.60
2019-03-18T17:35:23.016Z,42.93
2019-03-18T17:37:51.476Z,43.65
2019-03-18T17:40:20.894Z,42.96
2019-03-18T17:42:49.372Z,43.44
2019-03-18T17:45:18.942Z,43.55
2019-03-18T17:47:47.492Z,43.30
2019-03-18T17:50:29.517Z,43.55
2019-03-18T17:53:02.894Z,43.00
2019-03-18T17:55:27.421Z,42.60
2019-03-18T17:57:55.892Z,42.90
2019-03-18T18:00:29.150Z,41.92
2019-03-18T18:02:57.629Z,43.08
2019-03-18T18:05:26.132Z,42.92
2019-03-18T18:07:54.599Z,43.88
2019-03-18T18:10:23.193Z,42.70
2019-03-18T18:12:51.664Z,43.55
2019-03-18T18:15:20.155Z,43.67
2019-03-18T18:17:48.932Z,45.10
2019-03-18T18:20:17.422Z,45.02
2019-03-18T18:22:45.955Z,44.15
2019-03-18T18:25:15.561Z,44.48
2019-03-18T18:27:44.122Z,45.31
2019-03-18T18:30:17.397Z,45.65
2019-03-18T18:32:46.010Z,46.04
2019-03-18T18:35:14.509Z,46.00
2019-03-18T18:37:43.053Z,45.98
2019-03-18T18:40:19.166Z,45.90
2019-03-18T18:42:47.644Z,45.75
2019-03-18T18:45:16.266Z,45.93
2019-03-18T18:47:44.829Z,46.08
2019-03-18T18:50:13.904Z,46.21
2019-03-18T18:52:42.365Z,47.36
2019-03-18T18:55:14.711Z,48.25
2019-03-18T18:57:43.352Z,48.83
2019-03-18T19:00:21.815Z,48.38
2019-03-18T19:02:52.338Z,47.87
2019-03-18T19:05:20.979Z,48.94
2019-03-18T19:07:49.455Z,48.85
2019-03-18T19:10:21.481Z,48.48
2019-03-18T19:12:50.082Z,49.15
2019-03-18T19:15:20.964Z,49.47
2019-03-18T19:17:49.677Z,49.25
2019-03-18T19:20:18.459Z,49.78
2019-03-18T19:22:47.076Z,49.51
2019-03-18T19:25:16.390Z,49.49
2019-03-18T19:27:45.102Z,49.58
2019-03-18T19:30:16.208Z,49.28
2019-03-18T19:32:44.767Z,49.16
2019-03-18T19:35:13.487Z,48.92
2019-03-18T19:37:42.049Z,49.06
2019-03-18T19:40:15.556Z,49.25
2019-03-18T19:42:44.185Z,48.76
2019-03-18T19:45:14.711Z,48.81
2019-03-18T19:47:43.545Z,49.46
2019-03-18T19:50:26.034Z,48.91
2019-03-18T19:52:54.532Z,49.16
2019-03-18T19:55:23.039Z,49.23
2019-03-18T19:57:51.591Z,48.48
2019-03-18T20:00:22.875Z,48.13
2019-03-18T20:02:51.451Z,48.03
2019-03-18T20:05:19.927Z,47.50
2019-03-18T20:07:48.415Z,47.99
2019-03-18T20:10:18.901Z,48.03
2019-03-18T20:12:47.505Z,48.61
2019-03-18T20:15:19.872Z,49.52
2019-03-18T20:17:48.364Z,49.10
2019-03-18T20:20:24.130Z,49.92
2019-03-18T20:22:52.624Z,50.31
2019-03-18T20:25:21.181Z,50.54
2019-03-18T20:27:49.657Z,49.64
2019-03-18T20:30:24.052Z,50.01
2019-03-18T20:32:53.693Z,50.04
2019-03-18T20:35:23.289Z,50.03
2019-03-18T20:37:52.504Z,50.36
2019-03-18T20:40:21.269Z,50.81
2019-03-18T20:42:49.807Z,51.03
2019-03-18T20:45:27.661Z,51.25
2019-03-18T20:47:56.133Z,50.82
2019-03-18T20:50:25.377Z,50.99
2019-03-18T20:52:54.015Z,51.68
2019-03-18T20:55:22.488Z,51.30
2019-03-18T20:57:50.983Z,51.33
2019-03-18T21:00:24.857Z,51.24
2019-03-18T21:02:53.775Z,51.03
2019-03-18T21:05:24.934Z,51.06
2019-03-18T21:07:54.854Z,51.40
2019-03-18T21:10:23.467Z,50.90
2019-03-18T21:12:51.968Z,50.91
2019-03-18T21:15:20.614Z,51.19
2019-03-18T21:17:49.104Z,51.75
2019-03-18T21:20:18.618Z,51.81
2019-03-18T21:22:47.092Z,51.59
2019-03-18T21:25:15.662Z,51.88
2019-03-18T21:27:44.314Z,51.82
2019-03-18T21:30:18.511Z,52.04
2019-03-18T21:32:47.222Z,52.48
2019-03-18T21:35:15.685Z,52.60
2019-03-18T21:37:44.161Z,52.70
2019-03-18T21:40:20.008Z,53.21
2019-03-18T21:42:48.542Z,52.80
2019-03-18T21:45:23.280Z,52.53
2019-03-18T21:47:51.342Z,52.56
2019-03-18T21:50:19.906Z,52.53
2019-03-18T21:52:48.477Z,52.32
2019-03-18T21:55:18.090Z,52.27
2019-03-18T21:57:46.641Z,51.95
2019-03-18T22:00:18.978Z,51.38
2019-03-18T22:02:47.651Z,50.97
2019-03-18T22:05:16.551Z,51.31
2019-03-18T22:07:45.026Z,50.63
2019-03-18T22:10:16.041Z,50.85
2019-03-18T22:12:44.581Z,51.50
2019-03-18T22:15:14.392Z,51.65
2019-03-18T22:17:43.164Z,52.15
2019-03-18T22:20:16.551Z,53.37
2019-03-18T22:22:45.093Z,53.06
2019-03-18T22:25:14.536Z,53.39
2019-03-18T22:27:43.084Z,52.88
2019-03-18T22:30:16.179Z,52.80
2019-03-18T22:32:44.995Z,52.60
2019-03-18T22:35:15.169Z,53.14
2019-03-18T22:37:44.136Z,53.17
2019-03-18T22:40:14.363Z,52.65
2019-03-18T22:42:42.833Z,52.26
2019-03-18T22:45:13.158Z,52.69
2019-03-18T22:47:41.737Z,52.25
2019-03-18T22:50:12.098Z,52.02
2019-03-18T22:52:40.600Z,52.30
2019-03-18T22:55:11.084Z,52.30
2019-03-18T22:57:39.764Z,52.22
2019-03-18T23:00:23.514Z,51.63
2019-03-18T23:02:53.102Z,52.31
2019-03-18T23:05:21.856Z,52.57
2019-03-18T23:07:50.416Z,52.12
2019-03-18T23:10:19.111Z,51.93
2019-03-18T23:12:47.605Z,51.58
2019-03-18T23:15:16.172Z,53.86
2019-03-18T23:17:44.641Z,53.98
2019-03-18T23:20:13.688Z,53.70
2019-03-18T23:22:42.170Z,53.25
2019-03-18T23:25:10.704Z,53.45
2019-03-18T23:27:39.195Z,52.69
2019-03-18T23:30:14.904Z,52.47
2019-03-18T23:32:43.557Z,53.08
2019-03-18T23:35:14.687Z,54.12
2019-03-18T23:37:43.192Z,55.22
2019-03-18T23:40:12.808Z,56.73
2019-03-18T23:42:41.361Z,57.03
2019-03-18T23:45:11.080Z,57.73
2019-03-18T23:47:39.728Z,57.62
2019-03-18T23:50:11.171Z,57.43
2019-03-18T23:52:39.709Z,56.69
2019-03-18T23:55:18.464Z,56.29
2019-03-18T23:57:39.341Z,55.68
